ROYNROAH

Guest
Details From ROYN - Yonaguni
To ROAH - Naha
Flight Number -
Tags Generated
Created
Modified
Stats Distance 274 nm / 508 km
Max Altitude 0 ft / 0 m
Waypoints 3
Social Downloads 0
Likes 0
Share VATSIM

Download

Looking for another format? Having issues loading an existing format? Contact us
Advertisement - Login to hide

Notes

Generated

Route

ROYN NHC ROAH

ID Type Via Altitude Latitude Longitude Leg Dist Tot Dist Heading (true) Name
O ROYN APT - 0 ft / 0 m 24.46522˚ 122.97072˚ - 0 nm - -
NHC VOR - 0 ft / 0 m 26.20853˚ 127.64287˚ 274 nm 274 nm 67° / 69° NAHA VORTAC
O ROAH APT - 0 ft / 0 m 26.20934˚ 127.64523˚ 0 nm 274 nm 69° / 69° -

Altitude Profile

Advertisement - Login to hide

Weather


0- 5 10 15 20 25 30 35+ Temperature / ° C

Clouds and Precipitation
Forecast for 2017-12-13 18:00 UTC. Updated 2 hours ago

Ground ~20,000 ft ~40,000 ft Winds

ROYN

Details ICAO ROYN (OGN)
Name YONAGUNI
Region Japan
Timezone Unknown (UTC+0.0)
Stats Elevation 70 ft / 21 m (AMSL)
Location 24.466943° 122.977875°
Runways 1
Magnetic Variation 4.488° W

METAR

ROYN 131800Z AUTO 06019KT 9999 SCT036 BKN041 OVC047 20/14 Q1019

Decode

TAF

Not found

Departure Runways

ID Width Length Bearing (true) Bearing (mag) Surface Threshold Offset Overrun Length
08 150 ft / 46 m 4,917 ft / 1,499 m 75.20° 79.69° Asphalt 0 ft / 0 m 200 ft / 61 m
26 150 ft / 46 m 4,917 ft / 1,499 m 255.20° 259.69° Asphalt 0 ft / 0 m 200 ft / 61 m

ROAH

Details ICAO ROAH (OKA)
Name NAHA
Region Japan
Timezone Asia/Tokyo (UTC+9.0)
Stats Elevation 12 ft / 4 m (AMSL)
Location 26.195815° 127.645868°
Runways 1
Magnetic Variation 5.229° W

METAR

ROAH 131830Z 05011KT 9999 FEW035 SCT050 16/08 Q1020

Decode

TAF

TAF ROAH 131705Z 1318/1500 04011KT 9999 FEW035 BKN045

Decode

Destination Runways

ID Width Length Bearing (true) Bearing (mag) Surface Threshold Offset Overrun Length
18 150 ft / 46 m 9,881 ft / 3,012 m 177.59° 182.82° Asphalt 138 ft / 42 m 640 ft / 195 m
36 150 ft / 46 m 9,881 ft / 3,012 m 357.59° 2.82° Asphalt 0 ft / 0 m 509 ft / 155 m

Approach Navaids

Runway Type Ident Frequency Range Bearing (true) Bearing (mag) Slope Elevation
36 Localiser IOK 110.30 MHz 18 nm / 33 km 356.78° 2.01° - 52 ft / 16 m (AMSL)
36 Glidescope IOK 110.30 MHz 10 nm / 19 km 357.59° 2.82° 2.75° 52 ft / 16 m (AMSL)
36 DME IOK 110.30 MHz 18 nm / 33 km - - - 31 ft / 9 m (AMSL)